Time;durP1;ratioP1;P1;durP2;ratioP2;P2;SDS_P1;SDS_P2;PMS_P1;PMS_P2;Temp;Humidity;BMP_temperature;BMP_pressure;BME280_temperature;BME280_humidity;BME280_pressure;Samples;Min_cycle;Max_cycle;Signal;HPM_P1;HPM_P2
2021/08/08 00:00:18;;;;;;;13.43;6.65;;;;;;;22.10;100.00;100343.46;1826640;78;21009;-86
2021/08/08 00:02:44;;;;;;;15.60;6.55;;;;;;;22.07;100.00;100335.91;1828461;78;20983;-85
2021/08/08 00:05:13;;;;;;;13.80;6.75;;;;;;;22.01;100.00;100339.46;1832831;78;21071;-85
2021/08/08 00:07:40;;;;;;;16.90;7.25;;;;;;;21.96;100.00;100336.94;1832449;78;21019;-83
2021/08/08 00:10:09;;;;;;;15.32;6.92;;;;;;;21.91;100.00;100344.02;1832457;78;21061;-85
2021/08/08 00:12:36;;;;;;;18.90;7.45;;;;;;;21.87;100.00;100345.85;1832835;77;21167;-84
2021/08/08 00:15:05;;;;;;;16.97;7.42;;;;;;;21.84;100.00;100352.82;1832632;78;21011;-85
2021/08/08 00:17:31;;;;;;;13.05;6.87;;;;;;;21.80;100.00;100342.31;1831214;77;21197;-85
2021/08/08 00:19:57;;;;;;;14.30;6.72;;;;;;;21.74;100.00;100339.56;1831060;77;20965;-85
2021/08/08 00:22:23;;;;;;;16.67;7.17;;;;;;;21.70;100.00;100333.14;1833071;78;20891;-85
2021/08/08 00:24:49;;;;;;;19.25;7.15;;;;;;;21.65;100.00;100336.09;1832516;78;20915;-85
2021/08/08 00:27:15;;;;;;;11.88;6.62;;;;;;;21.60;100.00;100344.00;1832618;78;20971;-87
2021/08/08 00:29:43;;;;;;;17.30;6.70;;;;;;;21.57;100.00;100354.27;1832719;78;21162;-85
2021/08/08 00:32:09;;;;;;;15.03;6.92;;;;;;;21.53;100.00;100351.96;1832791;78;20971;-84
2021/08/08 00:34:35;;;;;;;15.85;6.25;;;;;;;21.47;100.00;100345.92;1832790;78;21600;-83
2021/08/08 00:37:01;;;;;;;15.88;6.50;;;;;;;21.45;100.00;100348.77;1832685;78;21480;-85
2021/08/08 00:39:27;;;;;;;10.82;6.45;;;;;;;21.42;100.00;100350.24;1832708;78;21101;-85
2021/08/08 00:41:53;;;;;;;13.48;6.58;;;;;;;21.40;100.00;100343.49;1832467;78;21155;-85
2021/08/08 00:44:21;;;;;;;13.68;6.62;;;;;;;21.39;100.00;100344.64;1833109;77;20919;-83
2021/08/08 00:46:47;;;;;;;18.95;7.03;;;;;;;21.35;100.00;100338.19;1832850;78;21027;-85
2021/08/08 00:49:13;;;;;;;14.35;6.50;;;;;;;21.28;100.00;100329.95;1832635;78;20864;-84
2021/08/08 00:51:40;;;;;;;13.72;7.00;;;;;;;21.27;100.00;100334.41;1832515;78;21129;-85
2021/08/08 00:54:07;;;;;;;13.58;6.42;;;;;;;21.24;100.00;100335.89;1832804;78;21135;-85
2021/08/08 00:56:35;;;;;;;12.43;6.60;;;;;;;21.24;100.00;100337.26;1832777;78;21050;-84
2021/08/08 00:59:00;;;;;;;15.00;6.92;;;;;;;21.24;100.00;100335.89;1832444;78;21011;-85
2021/08/08 01:01:28;;;;;;;12.88;6.12;;;;;;;21.25;100.00;100338.05;1832872;78;20781;-85
2021/08/08 01:03:57;;;;;;;15.50;6.85;;;;;;;21.24;100.00;100329.03;1827937;78;20893;-85
2021/08/08 01:06:47;;;;;;;17.30;6.45;;;;;;;21.22;100.00;100319.55;1826625;78;21939;-85
2021/08/08 01:09:14;;;;;;;13.90;6.87;;;;;;;21.21;100.00;100320.12;1824931;78;20913;-85
2021/08/08 01:11:40;;;;;;;13.28;7.30;;;;;;;21.19;100.00;100316.11;1826425;78;21050;-86
2021/08/08 01:14:08;;;;;;;15.28;6.78;;;;;;;21.19;100.00;100321.59;1826676;78;20975;-87
2021/08/08 01:16:36;;;;;;;15.35;7.17;;;;;;;21.19;100.00;100327.87;1826526;78;21019;-84
2021/08/08 01:19:05;;;;;;;14.07;6.72;;;;;;;21.19;100.00;100331.98;1826762;78;21107;-85
2021/08/08 01:21:33;;;;;;;17.95;7.85;;;;;;;21.20;100.00;100331.41;1826571;78;21542;-84
2021/08/08 01:24:01;;;;;;;16.62;7.78;;;;;;;21.21;100.00;100329.71;1826588;78;21004;-85
2021/08/08 01:26:30;;;;;;;13.65;7.72;;;;;;;21.20;100.00;100328.09;1826518;78;21002;-83
2021/08/08 01:28:58;;;;;;;17.42;8.00;;;;;;;21.22;100.00;100333.25;1826155;78;20956;-85
2021/08/08 01:31:24;;;;;;;15.25;7.17;;;;;;;21.23;100.00;100326.62;1826706;78;21004;-84
2021/08/08 01:33:51;;;;;;;19.35;8.40;;;;;;;21.23;100.00;100327.41;1826479;78;20946;-86
2021/08/08 01:36:19;;;;;;;20.50;8.33;;;;;;;21.24;100.00;100329.61;1826703;78;20956;-86
2021/08/08 01:39:07;;;;;;;20.10;8.30;;;;;;;21.24;100.00;100333.14;1826563;78;20972;-85
2021/08/08 01:41:47;;;;;;;16.97;7.90;;;;;;;21.24;100.00;100333.14;1826596;78;21124;-86
2021/08/08 01:44:14;;;;;;;17.25;8.05;;;;;;;21.22;100.00;100323.08;1821437;78;22936;-85
2021/08/08 01:46:40;;;;;;;20.95;9.33;;;;;;;21.21;100.00;100317.95;1826230;78;20964;-84
2021/08/08 01:49:07;;;;;;;16.32;7.95;;;;;;;21.20;100.00;100318.50;1826624;78;20959;-86
2021/08/08 01:51:34;;;;;;;14.68;8.38;;;;;;;21.21;100.00;100324.23;1826679;78;20913;-85
2021/08/08 01:54:00;;;;;;;18.32;8.05;;;;;;;21.22;100.00;100319.55;1826511;78;21594;-85
2021/08/08 01:56:26;;;;;;;17.30;8.85;;;;;;;21.21;100.00;100322.86;1826634;78;20997;-86
2021/08/08 01:58:52;;;;;;;19.10;8.83;;;;;;;21.22;100.00;100320.34;1826605;78;20900;-85
2021/08/08 02:01:18;;;;;;;14.75;8.13;;;;;;;21.22;100.00;100315.43;1826694;77;20947;-85
2021/08/08 02:03:44;;;;;;;18.70;9.25;;;;;;;21.19;100.00;100313.38;1828493;77;21045;-85
2021/08/08 02:06:11;;;;;;;20.40;9.78;;;;;;;21.17;100.00;100319.75;1829613;78;20932;-85
2021/08/08 02:08:38;;;;;;;19.80;9.38;;;;;;;21.16;100.00;100323.64;1829249;78;21139;-85
2021/08/08 02:11:04;;;;;;;15.85;8.95;;;;;;;21.16;100.00;100329.12;1829788;78;20968;-86
2021/08/08 02:13:30;;;;;;;20.55;8.73;;;;;;;21.14;100.00;100336.87;1829742;78;21023;-85
2021/08/08 02:15:56;;;;;;;17.65;9.18;;;;;;;21.13;100.00;100336.08;1829700;78;21050;-85
2021/08/08 02:18:23;;;;;;;21.80;9.58;;;;;;;21.12;100.00;100329.55;1829806;78;20860;-85
2021/08/08 02:20:49;;;;;;;22.30;9.58;;;;;;;21.10;100.00;100336.17;1829705;78;21021;-85
2021/08/08 02:23:15;;;;;;;17.85;8.60;;;;;;;21.07;100.00;100341.53;1826152;78;21550;-88
2021/08/08 02:25:41;;;;;;;17.92;8.75;;;;;;;21.05;100.00;100343.80;1829731;78;20955;-85
2021/08/08 02:28:07;;;;;;;20.62;10.05;;;;;;;21.03;100.00;100341.41;1829747;78;21045;-84
2021/08/08 02:30:35;;;;;;;17.05;8.78;;;;;;;21.01;100.00;100340.14;1829693;78;20964;-85
2021/08/08 02:33:01;;;;;;;15.63;9.13;;;;;;;21.00;100.00;100342.09;1829717;78;21057;-84
2021/08/08 02:35:27;;;;;;;19.32;8.75;;;;;;;21.00;100.00;100344.00;1829484;78;20972;-85
2021/08/08 02:37:53;;;;;;;15.88;9.15;;;;;;;20.97;100.00;100344.12;1829578;78;21057;-84
2021/08/08 02:40:19;;;;;;;20.90;9.83;;;;;;;20.97;100.00;100341.93;1829213;78;20923;-85
2021/08/08 02:42:45;;;;;;;20.75;10.03;;;;;;;20.95;100.00;100343.66;1807424;78;20833;-85
2021/08/08 02:45:11;;;;;;;16.90;9.78;;;;;;;20.95;100.00;100344.23;1829884;78;21031;-85
2021/08/08 02:47:37;;;;;;;20.27;9.30;;;;;;;20.96;100.00;100354.84;1829688;78;21171;-85
2021/08/08 02:50:05;;;;;;;18.90;10.08;;;;;;;20.99;100.00;100348.69;1829707;78;20935;-84
2021/08/08 02:52:31;;;;;;;18.40;9.58;;;;;;;21.02;100.00;100357.59;1829794;78;21488;-85
2021/08/08 02:54:58;;;;;;;15.28;9.18;;;;;;;21.04;100.00;100358.08;1829685;78;21003;-84
2021/08/08 02:57:24;;;;;;;20.05;10.20;;;;;;;21.09;100.00;100361.19;1829749;78;20963;-84
2021/08/08 02:59:49;;;;;;;23.18;9.50;;;;;;;21.13;100.00;100360.73;1829598;78;21679;-85
2021/08/08 03:02:15;;;;;;;22.73;9.83;;;;;;;21.18;100.00;100362.45;1829722;78;20868;-82
2021/08/08 03:04:41;;;;;;;19.40;9.20;;;;;;;21.23;100.00;100361.67;1826613;78;20860;-86
2021/08/08 03:07:07;;;;;;;20.75;10.68;;;;;;;21.27;100.00;100361.83;1826595;78;21693;-82
2021/08/08 03:09:33;;;;;;;21.30;10.18;;;;;;;21.33;100.00;100364.58;1826189;77;21287;-85
2021/08/08 03:11:59;;;;;;;22.17;10.48;;;;;;;21.40;100.00;100364.05;1826546;78;21691;-85
2021/08/08 03:14:25;;;;;;;19.60;9.98;;;;;;;21.47;100.00;100365.66;1826574;77;20919;-85
2021/08/08 03:16:51;;;;;;;24.37;10.50;;;;;;;21.55;100.00;100370.26;1826528;78;20852;-83
2021/08/08 03:19:17;;;;;;;27.95;10.18;;;;;;;21.64;100.00;100368.80;1826816;78;21613;-90
2021/08/08 03:21:44;;;;;;;19.45;9.70;;;;;;;21.71;100.00;100372.59;1826675;78;21488;-83
2021/08/08 03:24:10;;;;;;;25.30;11.05;;;;;;;21.81;100.00;100379.56;1826609;78;21530;-84
2021/08/08 03:26:37;;;;;;;19.82;10.43;;;;;;;21.87;100.00;100386.43;1826644;78;20967;-85
2021/08/08 03:29:03;;;;;;;19.92;11.05;;;;;;;21.99;100.00;100394.67;1826791;78;20967;-85
2021/08/08 03:31:30;;;;;;;18.42;9.73;;;;;;;22.15;100.00;100392.64;1806226;78;20991;-84
2021/08/08 03:33:56;;;;;;;20.15;10.25;;;;;;;22.27;100.00;100387.18;1826290;78;21152;-83
2021/08/08 03:36:23;;;;;;;19.98;10.13;;;;;;;22.41;100.00;100378.02;1826747;77;21027;-84
2021/08/08 03:38:49;;;;;;;20.10;11.08;;;;;;;22.56;100.00;100384.75;1806250;78;21459;-84
2021/08/08 03:41:16;;;;;;;17.07;9.55;;;;;;;22.69;100.00;100382.77;1823245;77;21451;-84
2021/08/08 03:43:42;;;;;;;17.27;10.35;;;;;;;22.91;100.00;100386.94;1826466;78;21015;-84
2021/08/08 03:46:08;;;;;;;17.00;9.13;;;;;;;23.16;100.00;100393.77;1827284;78;21181;-84
2021/08/08 03:48:33;;;;;;;18.65;9.88;;;;;;;23.44;100.00;100397.87;1826627;77;21001;-83
2021/08/08 03:51:00;;;;;;;19.60;10.65;;;;;;;23.76;100.00;100400.13;1826407;78;20907;-85
2021/08/08 03:53:26;;;;;;;18.92;9.93;;;;;;;24.06;100.00;100401.89;1826534;78;20989;-84
2021/08/08 03:55:51;;;;;;;21.48;10.15;;;;;;;24.54;100.00;100396.34;1826614;78;21084;-84
2021/08/08 03:58:18;;;;;;;18.73;9.25;;;;;;;24.90;100.00;100384.91;1826650;78;21354;-84
2021/08/08 04:00:43;;;;;;;24.18;11.00;;;;;;;24.89;100.00;100382.53;1826465;78;20968;-84
2021/08/08 04:03:10;;;;;;;17.85;10.08;;;;;;;24.83;100.00;100384.78;1826489;78;20951;-84
2021/08/08 04:05:36;;;;;;;17.52;10.13;;;;;;;24.89;100.00;100381.95;1816628;78;20960;-86
2021/08/08 04:08:02;;;;;;;19.55;9.73;;;;;;;25.10;100.00;100376.07;1832547;78;20979;-84
2021/08/08 04:10:27;;;;;;;23.90;10.60;;;;;;;25.07;100.00;100372.66;1832731;78;21086;-84
2021/08/08 04:12:53;;;;;;;22.90;9.60;;;;;;;25.04;100.00;100368.46;1832692;77;20860;-83
2021/08/08 04:15:19;;;;;;;17.70;10.32;;;;;;;25.04;100.00;100365.70;1832536;78;20947;-84
2021/08/08 04:17:45;;;;;;;22.70;10.48;;;;;;;25.04;100.00;100370.63;1829457;78;20951;-85
2021/08/08 04:20:12;;;;;;;16.50;10.00;;;;;;;25.22;100.00;100378.49;1832699;78;20876;-84
2021/08/08 04:22:38;;;;;;;19.42;10.85;;;;;;;25.45;100.00;100378.55;1816407;78;21905;-85
2021/08/08 04:25:04;;;;;;;19.98;11.28;;;;;;;25.74;100.00;100375.13;1832612;78;21015;-84
2021/08/08 04:27:31;;;;;;;20.60;11.10;;;;;;;26.04;100.00;100379.39;1810408;77;21491;-85
2021/08/08 04:29:56;;;;;;;23.45;11.20;;;;;;;26.16;100.00;100381.75;1797265;79;21022;-84
2021/08/08 04:32:23;;;;;;;21.40;11.43;;;;;;;26.16;100.00;100369.31;1799896;79;21676;-84
2021/08/08 04:34:49;;;;;;;22.00;11.70;;;;;;;26.07;100.00;100374.30;1799618;79;21193;-83
2021/08/08 04:37:15;;;;;;;22.58;11.45;;;;;;;25.96;100.00;100369.98;1799919;79;20942;-85
2021/08/08 04:39:41;;;;;;;23.22;11.25;;;;;;;25.78;100.00;100373.80;1799997;79;20875;-84
2021/08/08 04:42:07;;;;;;;25.08;11.57;;;;;;;25.60;100.00;100368.77;1799811;79;20863;-84
2021/08/08 04:44:33;;;;;;;20.95;11.75;;;;;;;25.57;100.00;100368.70;1799901;79;20931;-83
2021/08/08 04:46:59;;;;;;;21.07;11.38;;;;;;;25.46;100.00;100374.02;1800124;79;21995;-84
2021/08/08 04:49:25;;;;;;;24.80;12.33;;;;;;;25.33;100.00;100380.88;1799822;78;21569;-90
2021/08/08 04:51:50;;;;;;;24.32;12.78;;;;;;;25.21;100.00;100381.84;1799951;79;20946;-83
2021/08/08 04:54:16;;;;;;;23.45;12.73;;;;;;;25.18;100.00;100377.61;1799900;79;20833;-80
2021/08/08 04:56:43;;;;;;;24.70;12.80;;;;;;;25.12;100.00;100372.37;1799959;79;20975;-83
2021/08/08 04:59:09;;;;;;;24.92;12.47;;;;;;;25.09;100.00;100368.15;1799496;79;21974;-85
2021/08/08 05:01:37;;;;;;;24.07;13.08;;;;;;;24.98;100.00;100363.81;1799754;79;21003;-89
2021/08/08 05:04:03;;;;;;;28.17;13.30;;;;;;;24.95;100.00;100366.51;1797865;79;20987;-83
2021/08/08 05:06:33;;;;;;;22.30;13.13;;;;;;;24.94;100.00;100372.58;1793937;80;20978;-83
2021/08/08 05:08:59;;;;;;;26.85;13.72;;;;;;;24.93;100.00;100375.13;1793754;80;21580;-84
2021/08/08 05:11:25;;;;;;;26.80;13.32;;;;;;;25.02;100.00;100380.42;1793887;80;21124;-83
2021/08/08 05:13:50;;;;;;;31.60;14.75;;;;;;;25.14;100.00;100378.92;1793813;80;21653;-83
2021/08/08 05:16:16;;;;;;;27.22;14.07;;;;;;;25.25;100.00;100376.38;1793750;80;20884;-79
2021/08/08 05:18:42;;;;;;;30.25;15.13;;;;;;;25.33;100.00;100373.40;1769545;80;20868;-82
2021/08/08 05:21:08;;;;;;;25.10;13.95;;;;;;;25.41;100.00;100377.66;1794052;80;20853;-84
2021/08/08 05:23:36;;;;;;;30.92;14.10;;;;;;;25.50;100.00;100378.22;1790661;80;21661;-83
2021/08/08 05:26:04;;;;;;;25.72;14.60;;;;;;;25.78;100.00;100382.87;1793754;79;21067;-84
2021/08/08 05:28:32;;;;;;;25.08;15.13;;;;;;;26.14;100.00;100389.59;1794031;80;20968;-84
2021/08/08 05:30:58;;;;;;;27.65;15.58;;;;;;;26.32;100.00;100395.40;1786498;80;21602;-84
2021/08/08 05:33:24;;;;;;;28.98;14.98;;;;;;;26.52;100.00;100396.91;1788259;79;20990;-84
2021/08/08 05:35:51;;;;;;;31.60;15.93;;;;;;;26.72;100.00;100392.85;1809978;79;21064;-83
2021/08/08 05:38:17;;;;;;;22.93;14.78;;;;;;;26.95;100.00;100396.91;1809528;79;20996;-81
2021/08/08 05:40:43;;;;;;;28.57;15.72;;;;;;;27.07;100.00;100400.02;1791330;79;20952;-83
2021/08/08 05:43:09;;;;;;;31.25;16.27;;;;;;;27.24;100.00;100399.23;1726457;83;21047;-83
2021/08/08 05:45:35;;;;;;;26.57;15.05;;;;;;;27.30;100.00;100398.54;1726790;83;20917;-83
2021/08/08 05:48:01;;;;;;;27.45;14.87;;;;;;;27.43;100.00;100403.81;1701039;83;21505;-84
2021/08/08 05:50:27;;;;;;;25.12;14.63;;;;;;;27.52;100.00;100398.76;1726668;83;21015;-84
2021/08/08 05:52:53;;;;;;;22.95;14.33;;;;;;;27.94;100.00;100403.13;1726573;83;20939;-84
2021/08/08 05:55:20;;;;;;;26.40;14.13;;;;;;;28.57;100.00;100408.98;1721301;83;20947;-82
2021/08/08 05:57:46;;;;;;;24.65;14.55;;;;;;;29.36;100.00;100405.19;1695932;83;21125;-83
2021/08/08 06:00:13;;;;;;;27.45;14.63;;;;;;;30.16;100.00;100394.38;1720272;83;21755;-83
2021/08/08 06:02:41;;;;;;;20.57;13.18;;;;;;;30.95;100.00;100389.46;1720586;83;21086;-84
2021/08/08 06:05:07;;;;;;;20.23;13.18;;;;;;;31.83;100.00;100381.78;1671971;85;20991;-84
2021/08/08 06:07:33;;;;;;;21.80;13.75;;;;;;;32.50;100.00;100385.77;1696750;83;21041;-84
2021/08/08 06:10:04;;;;;;;25.70;14.25;;;;;;;33.08;97.69;100392.89;1729362;83;20977;-84
2021/08/08 06:12:30;;;;;;;22.35;15.08;;;;;;;33.58;92.47;100395.79;1729412;82;22159;-85
2021/08/08 06:14:55;;;;;;;20.23;14.05;;;;;;;34.46;81.60;100390.52;1729566;82;21013;-86
2021/08/08 06:17:21;;;;;;;18.70;13.10;;;;;;;35.16;77.58;100390.16;1730027;82;20946;-85
2021/08/08 06:19:47;;;;;;;19.05;12.90;;;;;;;35.88;69.78;100378.05;1729820;82;20954;-85
2021/08/08 06:22:14;;;;;;;21.80;13.95;;;;;;;36.13;69.42;100380.25;1729866;83;20934;-84
2021/08/08 06:24:41;;;;;;;16.97;11.78;;;;;;;36.40;62.83;100367.28;1684796;83;22052;-86
2021/08/08 06:27:08;;;;;;;16.77;12.15;;;;;;;36.54;58.54;100362.70;1697671;84;21043;-84
2021/08/08 06:29:36;;;;;;;16.87;11.68;;;;;;;36.79;55.26;100358.38;1695228;83;21026;-85
2021/08/08 06:32:04;;;;;;;22.93;12.45;;;;;;;35.98;54.60;100352.37;1699940;83;20963;-86
2021/08/08 06:34:30;;;;;;;19.98;12.23;;;;;;;35.23;55.21;100366.95;1724731;83;21072;-84
2021/08/08 06:36:55;;;;;;;19.12;12.33;;;;;;;34.78;58.33;100361.91;1819064;78;21946;-87
2021/08/08 06:39:21;;;;;;;19.70;12.78;;;;;;;35.21;59.33;100375.61;1840815;78;20850;-83
2021/08/08 06:41:47;;;;;;;17.50;12.47;;;;;;;35.88;59.91;100376.64;1840705;78;20874;-84
2021/08/08 06:44:13;;;;;;;20.50;12.33;;;;;;;36.21;55.96;100366.80;1837584;78;20939;-84
2021/08/08 06:46:39;;;;;;;16.30;11.15;;;;;;;36.71;53.58;100371.05;1828549;77;20880;-84
2021/08/08 06:49:04;;;;;;;20.50;12.40;;;;;;;36.76;52.50;100368.48;1826483;78;21293;-84
2021/08/08 06:51:30;;;;;;;20.52;12.85;;;;;;;36.37;51.74;100365.37;1805706;78;20860;-83
2021/08/08 06:53:56;;;;;;;17.92;11.50;;;;;;;35.69;51.97;100365.72;1826425;78;20907;-80
2021/08/08 06:56:22;;;;;;;18.82;11.70;;;;;;;35.60;55.88;100376.76;1826520;78;20915;-83
2021/08/08 06:59:19;;;;;;;16.00;11.22;;;;;;;36.58;53.90;100363.38;1826484;78;20939;-81
2021/08/08 07:01:46;;;;;;;20.52;12.35;;;;;;;37.56;51.13;100362.67;1826504;78;21144;-89
2021/08/08 07:04:12;;;;;;;24.75;11.80;;;;;;;38.04;48.00;100330.52;1801575;78;20988;-84
2021/08/08 07:06:38;;;;;;;17.23;12.33;;;;;;;38.22;45.71;100367.88;1797183;79;20991;-84
2021/08/08 07:09:07;;;;;;;15.15;11.48;;;;;;;38.33;45.66;100368.30;1796997;78;21034;-84
2021/08/08 07:11:32;;;;;;;18.05;11.88;;;;;;;38.65;44.16;100373.38;1778807;79;21042;-84
2021/08/08 07:13:59;;;;;;;16.35;11.18;;;;;;;38.68;43.51;100382.94;1797237;79;21024;-83
2021/08/08 07:16:25;;;;;;;17.30;10.58;;;;;;;38.96;42.52;100367.80;1778852;79;20923;-84
2021/08/08 07:18:51;;;;;;;16.48;10.70;;;;;;;38.80;41.79;100371.61;1796786;79;21306;-84
2021/08/08 07:21:17;;;;;;;19.23;11.45;;;;;;;38.55;42.84;100376.76;1797213;79;21007;-85
2021/08/08 07:23:44;;;;;;;18.70;10.70;;;;;;;38.81;42.39;100372.39;1797167;79;21039;-86
2021/08/08 07:26:10;;;;;;;17.07;10.50;;;;;;;38.25;42.03;100377.45;1797067;79;21113;-85
2021/08/08 07:28:37;;;;;;;20.05;10.50;;;;;;;38.38;42.81;100377.54;1796916;79;21077;-84
2021/08/08 07:31:03;;;;;;;16.55;10.72;;;;;;;38.58;41.62;100371.61;1797122;79;21007;-84
2021/08/08 07:33:29;;;;;;;13.72;10.10;;;;;;;38.62;41.88;100379.33;1825940;78;21007;-82
2021/08/08 07:35:55;;;;;;;18.15;10.48;;;;;;;39.44;41.66;100377.42;1794131;79;21003;-84
2021/08/08 07:38:22;;;;;;;13.58;10.32;;;;;;;39.71;39.98;100376.11;1797019;79;21113;-84
2021/08/08 07:40:48;;;;;;;18.42;10.80;;;;;;;39.93;39.38;100360.47;1797112;79;21074;-82
2021/08/08 07:43:14;;;;;;;17.23;10.43;;;;;;;40.18;38.98;100355.19;1779047;79;21026;-82
2021/08/08 07:45:41;;;;;;;14.45;10.38;;;;;;;40.40;37.16;100342.92;1803115;78;21530;-80
2021/08/08 07:48:07;;;;;;;14.58;10.80;;;;;;;40.23;38.60;100348.74;1829220;78;21475;-79
2021/08/08 07:50:33;;;;;;;13.72;10.23;;;;;;;40.71;37.24;100339.92;1829359;78;21004;-79
2021/08/08 07:53:00;;;;;;;15.32;10.23;;;;;;;41.08;36.50;100339.16;1829410;78;21015;-80
2021/08/08 07:55:26;;;;;;;15.58;9.83;;;;;;;40.63;36.40;100333.02;1829364;78;21043;-79
2021/08/08 07:57:52;;;;;;;14.43;10.70;;;;;;;40.91;36.80;100330.88;1829322;78;20976;-79
2021/08/08 08:00:18;;;;;;;14.00;10.45;;;;;;;41.21;36.32;100327.66;1828624;78;21527;-78
2021/08/08 08:02:45;;;;;;;13.80;10.65;;;;;;;41.65;35.49;100327.11;1821213;77;21078;-79
2021/08/08 08:05:11;;;;;;;16.45;11.20;;;;;;;41.94;35.16;100331.30;1827212;77;21031;-79
2021/08/08 08:07:37;;;;;;;14.95;10.68;;;;;;;42.05;34.87;100337.19;1826333;78;21019;-79
2021/08/08 08:10:04;;;;;;;16.15;11.68;;;;;;;42.27;34.61;100336.85;1826197;78;21011;-79
2021/08/08 08:12:31;;;;;;;19.30;10.82;;;;;;;42.52;34.39;100348.27;1826030;78;21022;-79
2021/08/08 08:14:57;;;;;;;20.25;11.00;;;;;;;42.43;34.95;100356.86;1826046;78;21106;-79
2021/08/08 08:17:23;;;;;;;17.55;11.68;;;;;;;42.71;34.11;100367.91;1826071;78;21047;-78
2021/08/08 08:19:49;;;;;;;30.05;12.18;;;;;;;42.69;33.28;100383.22;1826122;78;20999;-80
2021/08/08 08:22:16;;;;;;;15.28;11.18;;;;;;;42.80;33.83;100385.64;1825671;78;21511;-78
2021/08/08 08:24:44;;;;;;;16.87;11.73;;;;;;;43.06;32.69;100383.59;1805424;78;21015;-80
2021/08/08 08:27:11;;;;;;;16.97;12.18;;;;;;;43.08;33.10;100388.15;1763649;80;21589;-78
2021/08/08 08:29:38;;;;;;;19.27;11.70;;;;;;;43.19;33.09;100388.36;1735928;82;20928;-79
2021/08/08 08:32:09;;;;;;;25.57;11.10;;;;;;;43.13;32.71;100385.27;1735897;82;21055;-79
2021/08/08 08:37:04;;;;;;;16.87;11.45;;;;;;;42.72;33.11;100385.89;1670090;85;20194;-78
2021/08/08 08:39:30;;;;;;;19.87;12.43;;;;;;;42.65;33.64;100377.72;1670366;85;21573;-79
2021/08/08 08:41:58;;;;;;;13.83;11.12;;;;;;;42.58;33.88;100377.48;1670212;85;20983;-79
2021/08/08 08:44:26;;;;;;;15.18;11.28;;;;;;;42.57;34.03;100372.32;1666078;85;22323;-79
2021/08/08 08:46:56;;;;;;;14.93;10.95;;;;;;;42.71;33.87;100371.52;1670241;85;21035;-79
2021/08/08 08:49:26;;;;;;;19.35;11.38;;;;;;;42.91;33.54;100374.33;1669902;85;21518;-80
2021/08/08 08:52:02;;;;;;;21.42;11.88;;;;;;;42.89;33.04;100367.75;1674225;85;21327;-80
2021/08/08 08:54:29;;;;;;;19.10;11.80;;;;;;;42.56;34.04;100363.66;1646997;87;21667;-80
2021/08/08 08:56:58;;;;;;;21.93;12.50;;;;;;;42.53;34.10;100373.13;1647216;85;21545;-80
2021/08/08 08:59:25;;;;;;;19.57;11.78;;;;;;;42.52;34.06;100367.33;1647160;87;21497;-79
2021/08/08 09:01:52;;;;;;;16.27;12.20;;;;;;;42.17;34.44;100373.59;1647173;87;21065;-79
2021/08/08 09:04:19;;;;;;;17.35;11.83;;;;;;;41.74;34.84;100371.52;1647165;87;21108;-79
2021/08/08 09:06:45;;;;;;;20.05;12.60;;;;;;;41.39;35.62;100366.37;1646841;87;21026;-79
2021/08/08 09:09:11;;;;;;;18.85;11.45;;;;;;;41.48;35.48;100372.02;1647025;87;20902;-79
2021/08/08 09:11:40;;;;;;;23.65;12.10;;;;;;;41.58;35.35;100375.56;1646846;87;21048;-79
2021/08/08 09:14:10;;;;;;;18.45;10.95;;;;;;;41.82;35.12;100377.61;1625787;88;21169;-80
2021/08/08 09:16:44;;;;;;;16.67;12.15;;;;;;;42.02;35.47;100373.56;1626046;88;21119;-79
2021/08/08 09:19:20;;;;;;;19.67;11.53;;;;;;;42.20;34.91;100378.29;1519903;94;20916;-79
2021/08/08 09:21:47;;;;;;;20.15;11.90;;;;;;;41.90;35.46;100382.45;1485359;96;21082;-80
2021/08/08 09:24:34;;;;;;;19.05;11.60;;;;;;;41.97;34.55;100387.74;1495100;94;21128;-79
2021/08/08 09:27:09;;;;;;;19.25;12.37;;;;;;;41.06;35.59;100381.30;1500657;95;21199;-80
2021/08/08 09:29:39;;;;;;;22.62;11.60;;;;;;;40.57;36.21;100384.34;1500826;95;21185;-81
2021/08/08 09:32:06;;;;;;;17.73;11.33;;;;;;;40.14;37.05;100384.80;1500357;95;21163;-79
2021/08/08 09:34:41;;;;;;;19.45;11.38;;;;;;;39.96;37.72;100385.57;1500738;95;21208;-86
2021/08/08 09:37:21;;;;;;;22.48;10.15;;;;;;;39.60;37.39;100391.28;1471252;97;21086;-86
2021/08/08 09:39:52;;;;;;;18.07;9.90;;;;;;;39.60;38.23;100397.55;1441616;98;21092;-83
2021/08/08 09:42:22;;;;;;;18.60;9.88;;;;;;;39.72;37.69;100400.23;1455419;98;27086;-84
2021/08/08 09:45:05;;;;;;;18.17;11.00;;;;;;;39.72;37.90;100400.23;1472896;97;21132;-85
2021/08/08 09:47:45;;;;;;;19.95;10.80;;;;;;;39.59;37.68;100406.61;1477167;97;21140;-85
2021/08/08 09:50:21;;;;;;;18.25;9.58;;;;;;;39.32;38.17;100408.72;1500093;94;21110;-86
2021/08/08 09:52:59;;;;;;;19.90;10.38;;;;;;;38.97;38.59;100414.46;1499535;95;21031;-86
2021/08/08 09:55:33;;;;;;;22.10;10.23;;;;;;;38.85;38.99;100406.87;1432845;100;21231;-85
2021/08/08 09:58:01;;;;;;;24.43;10.38;;;;;;;38.69;38.69;100403.63;1454112;98;21089;-87
2021/08/08 10:00:33;;;;;;;21.37;11.18;;;;;;;38.33;39.94;100407.71;1454298;98;21287;-84
2021/08/08 10:03:00;;;;;;;;;;;;;;;38.11;40.49;100409.69;1423383;101;21195;-86
2021/08/08 10:05:28;;;;;;;18.27;10.60;;;;;;;37.80;41.59;100414.53;1420040;101;20563;-83
2021/08/08 10:07:58;;;;;;;19.15;10.10;;;;;;;37.53;41.88;100407.16;1416887;101;21189;-82
2021/08/08 10:10:24;;;;;;;19.02;10.32;;;;;;;37.23;42.86;100414.89;1416672;101;21087;-83
2021/08/08 10:13:14;;;;;;;19.67;10.68;;;;;;;37.04;43.40;100411.06;1431382;99;21080;-84
2021/08/08 10:15:44;;;;;;;19.62;10.03;;;;;;;36.95;43.15;100416.52;1441562;99;21119;-83
2021/08/08 10:18:16;;;;;;;17.90;10.53;;;;;;;36.86;44.07;100414.95;1416827;97;21149;-83
2021/08/08 10:20:43;;;;;;;21.25;10.55;;;;;;;36.60;45.45;100421.30;1488217;95;21198;-82
2021/08/08 10:23:17;;;;;;;20.50;10.15;;;;;;;36.55;45.23;100418.24;1507656;95;21653;-82
2021/08/08 10:25:50;;;;;;;16.90;10.40;;;;;;;36.58;46.13;100419.55;1489310;95;21161;-81
2021/08/08 10:28:17;;;;;;;21.35;10.68;;;;;;;36.52;46.04;100416.33;1507717;95;21149;-81
2021/08/08 10:30:46;;;;;;;18.95;11.63;;;;;;;36.59;47.91;100416.11;1507686;95;21108;-82
2021/08/08 10:33:12;;;;;;;29.85;10.85;;;;;;;36.63;46.98;100421.66;1519822;90;21740;-82
2021/08/08 10:35:45;;;;;;;16.75;10.15;;;;;;;36.67;49.07;100413.28;1592668;89;20978;-80
2021/08/08 10:38:14;;;;;;;15.63;9.45;;;;;;;36.92;46.20;100416.80;1569728;91;21119;-81
2021/08/08 10:40:42;;;;;;;21.95;10.40;;;;;;;36.90;46.33;100420.66;1601234;89;21111;-82
2021/08/08 10:43:24;;;;;;;19.95;9.88;;;;;;;36.86;45.96;100417.77;1553922;86;21121;-82
2021/08/08 10:46:05;;;;;;;17.35;9.85;;;;;;;36.57;46.12;100416.57;1654187;86;21180;-81
2021/08/08 10:48:37;;;;;;;23.22;10.38;;;;;;;36.16;47.88;100415.84;1676072;85;21068;-80
2021/08/08 10:51:25;;;;;;;20.68;10.43;;;;;;;35.92;47.72;100415.23;1658382;86;21086;-80
2021/08/08 10:54:07;;;;;;;16.52;10.23;;;;;;;35.82;50.22;100412.84;1624621;87;21671;-81
2021/08/08 10:56:46;;;;;;;21.77;10.13;;;;;;;36.00;50.15;100410.22;1587097;90;21238;-81
2021/08/08 10:59:16;;;;;;;18.32;10.05;;;;;;;35.99;49.25;100423.45;1570476;88;22016;-83
2021/08/08 11:01:42;;;;;;;18.12;10.40;;;;;;;35.84;50.16;100427.23;1576524;91;21135;-82
2021/08/08 11:04:09;;;;;;;19.35;10.03;;;;;;;35.91;51.17;100417.22;1594561;88;21078;-79
2021/08/08 11:06:36;;;;;;;18.67;10.40;;;;;;;35.98;51.05;100421.89;1622442;88;21554;-81
2021/08/08 11:09:04;;;;;;;22.20;10.20;;;;;;;36.08;50.68;100419.44;1599298;88;21615;-82
2021/08/08 11:11:34;;;;;;;16.73;10.35;;;;;;;36.18;50.76;100410.59;1599071;88;21848;-82